Robijn — PBEJ — position and weather

sailwx.info

Track history (hours):
 
Tides and Currents Weather Stations Pressure Air Temp Water Temp Dewpoint Dewpoint Depression Visibility Wind Speed Wind Dir Waves Ship Positions

Robijn

Last reported at 2014-Aug-01 11:33 UTC. Time now 2014-Aug-01 12:02 UTC.
Position N 52°28' E 004°38'.

Length 90 m; draft 3.3 m.

Type: Cargo ship. MMSI: 245909000.

Date/timePositionNaut miles runAvg speedWind from/ knotsBaromVisibWave heightAir tempDewpointWater temp
2014-Aug-01 11:33N 52°28' E 004°38'0 0.0
2014-Aug-01 10:33N 52°28' E 004°38'0 0.0
2014-Aug-01 09:33N 52°28' E 004°38'0 0.0
2014-Aug-01 08:33N 52°28' E 004°38'0 0.0
2014-Aug-01 07:33N 52°28' E 004°38'0 0.0
2014-Aug-01 06:33N 52°28' E 004°38'0 0.0
2014-Aug-01 05:34N 52°28' E 004°38'3 3.0
2014-Aug-01 04:34N 52°28' E 004°33'9 9.4
2014-Aug-01 03:34N 52°28' E 004°18'8 8.4
2014-Aug-01 02:33N 52°28' E 004°04'8 8.1
2014-Aug-01 01:33N 52°26' E 003°51'8 7.8
2014-Aug-01 00:33N 52°24' E 003°38'8 7.6
2014-Jul-31 23:33N 52°21' E 003°27'8 7.6
2014-Jul-31 22:33N 52°18' E 003°15'8 8.0
2014-Jul-31 21:33N 52°16' E 003°03'8 7.8
2014-Jul-31 20:33N 52°13' E 002°51'8 8.2
2014-Jul-31 19:34N 52°10' E 002°38'8 8.1
2014-Jul-31 18:33N 52°07' E 002°26'8 8.1
2014-Jul-31 17:34N 52°04' E 002°14'8 8.1
2014-Jul-31 16:34N 52°01' E 002°02'1111.0
2014-Jul-31 15:34N 51°54' E 001°49'9 9.1
2014-Jul-31 14:33N 51°49' E 001°36'1010.1
2014-Jul-31 13:33N 51°43' E 001°23'9 9.1
2014-Jul-31 12:33N 51°36' E 001°13'8 8.4
2014-Jul-31 11:33N 51°32' E 001°01'9 8.7
2014-Jul-31 10:33N 51°29' E 000°48'1211.9
2014-Jul-31 09:33N 51°30' E 000°29'6 6.5
2014-Jul-31 08:33N 51°27' E 000°20'0 0.0
2014-Jul-31 07:33N 51°27' E 000°20'0 0.0
2014-Jul-31 06:33N 51°27' E 000°20'0 0.0
2014-Jul-31 05:33N 51°27' E 000°20'0 0.0
2014-Jul-31 04:33N 51°27' E 000°20'0 0.0
2014-Jul-31 03:33N 51°27' E 000°20'0 0.0
2014-Jul-31 02:33N 51°27' E 000°20'0 0.0
2014-Jul-31 01:33N 51°27' E 000°20'0 0.0
2014-Jul-31 00:33N 51°27' E 000°20'0 0.0
2014-Jul-30 23:33N 51°27' E 000°20'0 0.0
2014-Jul-30 22:33N 51°27' E 000°20'0 0.0
2014-Jul-30 21:33N 51°27' E 000°20'0 0.0
2014-Jul-30 20:33N 51°27' E 000°20'0 0.0
2014-Jul-30 19:33N 51°27' E 000°20'0 0.0
2014-Jul-30 18:33N 51°27' E 000°20'0 0.0
2014-Jul-30 17:33N 51°27' E 000°20'0 0.0
2014-Jul-30 16:33N 51°27' E 000°20'0 0.0
2014-Jul-30 15:33N 51°27' E 000°20'0 0.0
2014-Jul-30 14:33N 51°27' E 000°20'0 0.0
2014-Jul-30 13:33N 51°27' E 000°20'0 0.0
2014-Jul-30 12:33N 51°27' E 000°20'0 0.0
2014-Jul-30 11:33N 51°27' E 000°20'0 0.0
2014-Jul-30 10:33N 51°27' E 000°20'0 0.0
2014-Jul-30 09:33N 51°27' E 000°20'0 0.0
2014-Jul-30 08:33N 51°27' E 000°20'0 0.0
2014-Jul-30 07:33N 51°27' E 000°20'0 0.0
2014-Jul-30 06:33N 51°27' E 000°20'0 0.0
2014-Jul-30 05:33N 51°27' E 000°20'0 0.0
2014-Jul-30 04:33N 51°27' E 000°20'0 0.0
2014-Jul-30 03:33N 51°27' E 000°20'0 0.0
2014-Jul-30 02:33N 51°27' E 000°20'0 0.0
2014-Jul-30 01:33N 51°27' E 000°20'0 0.0
2014-Jul-30 00:33N 51°27' E 000°20'0 0.0
2014-Jul-29 23:34N 51°27' E 000°20'0 0.0
2014-Jul-29 22:33N 51°27' E 000°20'0 0.0
2014-Jul-29 21:33N 51°27' E 000°20'0 0.0
2014-Jul-29 20:33N 51°27' E 000°20'0 0.0
2014-Jul-29 19:33N 51°27' E 000°20'0 0.0
2014-Jul-29 18:33N 51°27' E 000°20'0 0.0
2014-Jul-29 17:33N 51°27' E 000°20'0 0.0
2014-Jul-29 16:33N 51°27' E 000°20'0 0.0
2014-Jul-29 15:33N 51°27' E 000°20'0 0.0
2014-Jul-29 14:33N 51°27' E 000°20'0 0.0
2014-Jul-29 13:34N 51°27' E 000°20'0 0.0
2014-Jul-29 12:34N 51°27' E 000°20'1 1.3
2014-Jul-29 11:34N 51°27' E 000°22'1110.7
2014-Jul-29 10:33N 51°30' E 000°38'1212.1
2014-Jul-29 09:33N 51°29' E 000°57'1211.6
2014-Jul-29 08:33N 51°29' E 001°16'1010.3
2014-Jul-29 07:33N 51°28' E 001°32'1010.2
2014-Jul-29 06:33N 51°29' E 001°49'10 9.7
2014-Jul-29 05:33N 51°25' E 002°03'1010.2
2014-Jul-29 04:32N 51°21' E 002°18'9 9.5
2014-Jul-29 03:33N 51°23' E 002°33'9 9.2
2014-Jul-29 02:33N 51°23' E 002°48'9 8.7
2014-Jul-29 01:33N 51°24' E 003°02'8 8.0
2014-Jul-29 00:33N 51°25' E 003°14'9 8.6
2014-Jul-28 23:33N 51°25' E 003°28'9 8.6
2014-Jul-28 22:33N 51°27' E 003°42'1 1.2
2014-Jul-28 21:32N 51°27' E 003°43'0 0.0
2014-Jul-28 20:29N 51°27' E 003°43'0 0.0
2014-Jul-28 19:32N 51°27' E 003°43'0 0.0
2014-Jul-28 18:32N 51°27' E 003°43'0 0.0
2014-Jul-28 17:32N 51°27' E 003°43'0 0.0
2014-Jul-28 16:32N 51°27' E 003°43'0 0.0
2014-Jul-28 15:32N 51°27' E 003°43'0 0.0
2014-Jul-28 14:32N 51°27' E 003°43'0 0.0
2014-Jul-28 13:32N 51°27' E 003°43'0 0.0
2014-Jul-28 12:32N 51°27' E 003°43'0 0.0
2014-Jul-28 11:32N 51°27' E 003°43'0 0.0
2014-Jul-28 10:32N 51°27' E 003°43'0 0.0
2014-Jul-28 09:32N 51°27' E 003°43'0 0.0
2014-Jul-28 08:29N 51°27' E 003°43'0 0.0
2014-Jul-28 07:32N 51°27' E 003°43'0 0.0
2014-Jul-28 06:32N 51°27' E 003°43'0 0.0
2014-Jul-28 05:29N 51°27' E 003°43'0 0.0
2014-Jul-28 04:32N 51°27' E 003°43'0 0.0
2014-Jul-28 03:32N 51°27' E 003°43'0 0.0
2014-Jul-28 02:32N 51°27' E 003°43'0 0.0
2014-Jul-28 01:32N 51°27' E 003°43'0 0.0
2014-Jul-28 00:32N 51°27' E 003°43'0 0.0
2014-Jul-27 23:32N 51°27' E 003°43'0 0.0
2014-Jul-27 22:32N 51°27' E 003°43'0 0.0
2014-Jul-27 21:29N 51°27' E 003°43'0 0.0
2014-Jul-27 20:32N 51°27' E 003°43'0 0.0
2014-Jul-27 19:32N 51°27' E 003°43'0 0.0
2014-Jul-27 18:32N 51°27' E 003°43'0 0.0
2014-Jul-27 17:32N 51°27' E 003°43'0 0.0
2014-Jul-27 16:29N 51°27' E 003°43'0 0.0
2014-Jul-27 15:32N 51°27' E 003°43'0 0.0
2014-Jul-27 14:32N 51°27' E 003°43'0 0.0
2014-Jul-27 13:32N 51°27' E 003°43'0 0.0
2014-Jul-27 12:32N 51°27' E 003°43'0 0.0
2014-Jul-27 11:32N 51°27' E 003°43'0 0.4
2014-Jul-27 10:31N 51°27' E 003°43'0 0.0
2014-Jul-27 09:31N 51°27' E 003°43'0 0.0
2014-Jul-27 08:28N 51°27' E 003°43'0 0.0
2014-Jul-27 07:28N 51°27' E 003°43'0 0.0
2014-Jul-27 06:31N 51°27' E 003°43'0 0.0
2014-Jul-27 05:31N 51°27' E 003°43'0 0.0
2014-Jul-27 04:31N 51°27' E 003°43'0 0.0
2014-Jul-27 03:31N 51°27' E 003°43'0 0.0
2014-Jul-27 02:31N 51°27' E 003°43'0 0.0
2014-Jul-27 01:31N 51°27' E 003°43'0 0.0
2014-Jul-27 00:31N 51°27' E 003°43'0 0.0
2014-Jul-26 23:31N 51°27' E 003°43'0 0.0
2014-Jul-26 22:31N 51°27' E 003°43'0 0.0
2014-Jul-26 21:31N 51°27' E 003°43'0 0.0
2014-Jul-26 20:31N 51°27' E 003°43'0 0.0
2014-Jul-26 19:31N 51°27' E 003°43'0 0.0
2014-Jul-26 18:31N 51°27' E 003°43'0 0.0
2014-Jul-26 17:31N 51°27' E 003°43'0 0.0
2014-Jul-26 16:31N 51°27' E 003°43'0 0.0
2014-Jul-26 15:31N 51°27' E 003°43'0 0.0
2014-Jul-26 14:31N 51°27' E 003°43'0 0.0
2014-Jul-26 13:31N 51°27' E 003°43'0 0.0
2014-Jul-26 12:31N 51°27' E 003°43'0 0.0
2014-Jul-26 11:28N 51°27' E 003°43'0 0.0
2014-Jul-26 10:31N 51°27' E 003°43'0 0.0
2014-Jul-26 09:31N 51°27' E 003°43'0 0.0
2014-Jul-26 08:25N 51°27' E 003°43'0 0.0
2014-Jul-26 07:31N 51°27' E 003°43'0 0.0
2014-Jul-26 06:31N 51°27' E 003°43'0 0.0
2014-Jul-26 05:31N 51°27' E 003°43'0 0.0
2014-Jul-26 04:31N 51°27' E 003°43'0 0.0
2014-Jul-26 03:31N 51°27' E 003°43'0 0.0
2014-Jul-26 02:31N 51°27' E 003°43'0 0.0
2014-Jul-26 01:31N 51°27' E 003°43'0 0.0
2014-Jul-26 00:31N 51°27' E 003°43'0 0.0
2014-Jul-25 23:31N 51°27' E 003°43'0 0.0
2014-Jul-25 22:31N 51°27' E 003°43'0 0.0
2014-Jul-25 21:31N 51°27' E 003°43'0 0.0
2014-Jul-25 20:31N 51°27' E 003°43'0 0.0
2014-Jul-25 19:31N 51°27' E 003°43'0 0.0
2014-Jul-25 18:31N 51°27' E 003°43'0 0.0
2014-Jul-25 17:31N 51°27' E 003°43'0 0.0
2014-Jul-25 16:31N 51°27' E 003°43'0 0.0
2014-Jul-25 15:31N 51°27' E 003°43'0 0.0
2014-Jul-25 14:28N 51°27' E 003°43'0 0.0
2014-Jul-25 13:31N 51°27' E 003°43'0 0.0
2014-Jul-25 12:31N 51°27' E 003°43'0 0.0
2014-Jul-25 11:31N 51°27' E 003°43'0 0.0
2014-Jul-25 10:31N 51°27' E 003°43'1 1.0
2014-Jul-25 09:30N 51°28' E 003°42'0 0.0
2014-Jul-25 08:33N 51°28' E 003°41'0 0.0
2014-Jul-25 07:33N 51°28' E 003°41'0 0.0
2014-Jul-25 06:33N 51°28' E 003°41'0 0.0
2014-Jul-25 05:33N 51°28' E 003°41'0 0.0
2014-Jul-25 04:33N 51°28' E 003°41'0 0.0
2014-Jul-25 03:30N 51°28' E 003°41'0 0.0
2014-Jul-25 02:33N 51°28' E 003°41'0 0.0
2014-Jul-25 01:33N 51°28' E 003°41'0 0.0
2014-Jul-25 00:30N 51°28' E 003°41'0 0.0
2014-Jul-24 23:33N 51°28' E 003°41'0 0.0
2014-Jul-24 22:33N 51°28' E 003°41'0 0.0
2014-Jul-24 21:33N 51°28' E 003°41'0 0.0
2014-Jul-24 20:30N 51°28' E 003°42'0 0.0
2014-Jul-24 19:33N 51°28' E 003°41'0 0.0
2014-Jul-24 18:33N 51°28' E 003°41'0 0.0
2014-Jul-24 17:33N 51°28' E 003°41'0 0.0
2014-Jul-24 16:33N 51°28' E 003°41'0 0.0
2014-Jul-24 15:33N 51°28' E 003°42'0 0.0
2014-Jul-24 14:33N 51°28' E 003°41'0 0.0
2014-Jul-24 13:30N 51°28' E 003°42'0 0.0
2014-Jul-24 12:33N 51°28' E 003°41'0 0.0
2014-Jul-24 11:33N 51°28' E 003°41'0 0.0
2014-Jul-24 10:30N 51°28' E 003°41'0 0.0
2014-Jul-24 09:33N 51°28' E 003°42'0 0.0
2014-Jul-24 08:33N 51°28' E 003°42'0 0.0
2014-Jul-24 07:30N 51°28' E 003°42'0 0.0
2014-Jul-24 06:33N 51°28' E 003°42'0 0.0
2014-Jul-24 05:30N 51°28' E 003°41'0 0.0
2014-Jul-24 04:33N 51°28' E 003°41'0 0.0
2014-Jul-24 03:33N 51°28' E 003°41'0 0.4
2014-Jul-24 02:33N 51°28' E 003°41'7 6.8
2014-Jul-24 01:33N 51°29' E 003°30'9 9.4
2014-Jul-24 00:33N 51°37' E 003°22'9 9.1
2014-Jul-23 23:34N 51°45' E 003°16'9 8.6
2014-Jul-23 22:33N 51°53' E 003°18'9 9.2
2014-Jul-23 21:33N 52°02' E 003°20'10 9.9
2014-Jul-23 20:31N 52°13' E 003°23'1010.4
2014-Jul-23 19:33N 52°23' E 003°26'1110.8
2014-Jul-23 18:33N 52°33' E 003°29'1110.6
2014-Jul-23 17:33N 52°42' E 003°39'1010.3
2014-Jul-23 16:33N 52°50' E 003°50'9 9.5
2014-Jul-23 15:33N 52°57' E 004°01'9 8.9
2014-Jul-23 14:34N 53°03' E 004°12'9 8.9
2014-Jul-23 13:33N 53°08' E 004°23'9 8.7
2014-Jul-23 12:33N 53°16' E 004°29'1010.0
2014-Jul-23 11:34N 53°25' E 004°36'1110.6
2014-Jul-23 10:34N 53°31' E 004°51'1111.2
2014-Jul-23 09:33N 53°35' E 005°09'1111.0
2014-Jul-23 08:34N 53°38' E 005°26'1010.4
2014-Jul-23 07:33N 53°41' E 005°43'9 9.5
2014-Jul-23 06:34N 53°45' E 005°58'9 9.1
2014-Jul-23 05:34N 53°48' E 006°13'9 8.7
2014-Jul-23 04:34N 53°50' E 006°27'9 9.1
2014-Jul-23 03:33N 53°54' E 006°41'13 9.8
2014-Jul-23 02:13N 53°57' E 007°03'810.5
2014-Jul-23 01:28N 53°59' E 007°16'1010.7
2014-Jul-23 00:34N 54°01' E 007°32'1110.6
2014-Jul-22 23:33N 54°02' E 007°50'1111.0
2014-Jul-22 22:34N 54°01' E 008°09'1111.3
2014-Jul-22 21:33N 53°59' E 008°27'9 9.0
2014-Jul-22 20:34N 53°55' E 008°41'7 7.2
2014-Jul-22 19:34N 53°50' E 008°51'7 7.3
2014-Jul-22 18:33N 53°52' E 009°03'4 3.9
2014-Jul-22 17:33N 53°54' E 009°09'6 6.0
2014-Jul-22 16:32N 53°58' E 009°16'9 8.6
2014-Jul-22 15:32N 54°06' E 009°20'4 3.8
2014-Jul-22 14:33N 54°09' E 009°23'  
Track history (hours):
 
Tides and Currents Weather Stations Pressure Air Temp Water Temp Dewpoint Dewpoint Depression Visibility Wind Speed Wind Dir Waves Ship Positions

Robijn

Last reported at 2014-Aug-01 11:33 UTC. Time now 2014-Aug-01 12:02 UTC.
Position N 52°28' E 004°38'.

Length 90 m; draft 3.3 m.

Type: Cargo ship. MMSI: 245909000.

Date/timePositionNaut miles runAvg speedWind from/ knotsBaromVisibWave heightAir tempDewpointWater temp
2014-Aug-01 11:33N 52°28' E 004°38'0 0.0
2014-Aug-01 10:33N 52°28' E 004°38'0 0.0
2014-Aug-01 09:33N 52°28' E 004°38'0 0.0
2014-Aug-01 08:33N 52°28' E 004°38'0 0.0
2014-Aug-01 07:33N 52°28' E 004°38'0 0.0
2014-Aug-01 06:33N 52°28' E 004°38'0 0.0
2014-Aug-01 05:34N 52°28' E 004°38'3 3.0
2014-Aug-01 04:34N 52°28' E 004°33'9 9.4
2014-Aug-01 03:34N 52°28' E 004°18'8 8.4
2014-Aug-01 02:33N 52°28' E 004°04'8 8.1
2014-Aug-01 01:33N 52°26' E 003°51'8 7.8
2014-Aug-01 00:33N 52°24' E 003°38'8 7.6
2014-Jul-31 23:33N 52°21' E 003°27'8 7.6
2014-Jul-31 22:33N 52°18' E 003°15'8 8.0
2014-Jul-31 21:33N 52°16' E 003°03'8 7.8
2014-Jul-31 20:33N 52°13' E 002°51'8 8.2
2014-Jul-31 19:34N 52°10' E 002°38'8 8.1
2014-Jul-31 18:33N 52°07' E 002°26'8 8.1
2014-Jul-31 17:34N 52°04' E 002°14'8 8.1
2014-Jul-31 16:34N 52°01' E 002°02'1111.0
2014-Jul-31 15:34N 51°54' E 001°49'9 9.1
2014-Jul-31 14:33N 51°49' E 001°36'1010.1
2014-Jul-31 13:33N 51°43' E 001°23'9 9.1
2014-Jul-31 12:33N 51°36' E 001°13'8 8.4
2014-Jul-31 11:33N 51°32' E 001°01'9 8.7
2014-Jul-31 10:33N 51°29' E 000°48'1211.9
2014-Jul-31 09:33N 51°30' E 000°29'6 6.5
2014-Jul-31 08:33N 51°27' E 000°20'0 0.0
2014-Jul-31 07:33N 51°27' E 000°20'0 0.0
2014-Jul-31 06:33N 51°27' E 000°20'0 0.0
2014-Jul-31 05:33N 51°27' E 000°20'0 0.0
2014-Jul-31 04:33N 51°27' E 000°20'0 0.0
2014-Jul-31 03:33N 51°27' E 000°20'0 0.0
2014-Jul-31 02:33N 51°27' E 000°20'0 0.0
2014-Jul-31 01:33N 51°27' E 000°20'0 0.0
2014-Jul-31 00:33N 51°27' E 000°20'0 0.0
2014-Jul-30 23:33N 51°27' E 000°20'0 0.0
2014-Jul-30 22:33N 51°27' E 000°20'0 0.0
2014-Jul-30 21:33N 51°27' E 000°20'0 0.0
2014-Jul-30 20:33N 51°27' E 000°20'0 0.0
2014-Jul-30 19:33N 51°27' E 000°20'0 0.0
2014-Jul-30 18:33N 51°27' E 000°20'0 0.0
2014-Jul-30 17:33N 51°27' E 000°20'0 0.0
2014-Jul-30 16:33N 51°27' E 000°20'0 0.0
2014-Jul-30 15:33N 51°27' E 000°20'0 0.0
2014-Jul-30 14:33N 51°27' E 000°20'0 0.0
2014-Jul-30 13:33N 51°27' E 000°20'0 0.0
2014-Jul-30 12:33N 51°27' E 000°20'0 0.0
2014-Jul-30 11:33N 51°27' E 000°20'0 0.0
2014-Jul-30 10:33N 51°27' E 000°20'0 0.0
2014-Jul-30 09:33N 51°27' E 000°20'0 0.0
2014-Jul-30 08:33N 51°27' E 000°20'0 0.0
2014-Jul-30 07:33N 51°27' E 000°20'0 0.0
2014-Jul-30 06:33N 51°27' E 000°20'0 0.0
2014-Jul-30 05:33N 51°27' E 000°20'0 0.0
2014-Jul-30 04:33N 51°27' E 000°20'0 0.0
2014-Jul-30 03:33N 51°27' E 000°20'0 0.0
2014-Jul-30 02:33N 51°27' E 000°20'0 0.0
2014-Jul-30 01:33N 51°27' E 000°20'0 0.0
2014-Jul-30 00:33N 51°27' E 000°20'0 0.0
2014-Jul-29 23:34N 51°27' E 000°20'0 0.0
2014-Jul-29 22:33N 51°27' E 000°20'0 0.0
2014-Jul-29 21:33N 51°27' E 000°20'0 0.0
2014-Jul-29 20:33N 51°27' E 000°20'0 0.0
2014-Jul-29 19:33N 51°27' E 000°20'0 0.0
2014-Jul-29 18:33N 51°27' E 000°20'0 0.0
2014-Jul-29 17:33N 51°27' E 000°20'0 0.0
2014-Jul-29 16:33N 51°27' E 000°20'0 0.0
2014-Jul-29 15:33N 51°27' E 000°20'0 0.0
2014-Jul-29 14:33N 51°27' E 000°20'0 0.0
2014-Jul-29 13:34N 51°27' E 000°20'0 0.0
2014-Jul-29 12:34N 51°27' E 000°20'1 1.3
2014-Jul-29 11:34N 51°27' E 000°22'1110.7
2014-Jul-29 10:33N 51°30' E 000°38'1212.1
2014-Jul-29 09:33N 51°29' E 000°57'1211.6
2014-Jul-29 08:33N 51°29' E 001°16'1010.3
2014-Jul-29 07:33N 51°28' E 001°32'1010.2
2014-Jul-29 06:33N 51°29' E 001°49'10 9.7
2014-Jul-29 05:33N 51°25' E 002°03'1010.2
2014-Jul-29 04:32N 51°21' E 002°18'9 9.5
2014-Jul-29 03:33N 51°23' E 002°33'9 9.2
2014-Jul-29 02:33N 51°23' E 002°48'9 8.7
2014-Jul-29 01:33N 51°24' E 003°02'8 8.0
2014-Jul-29 00:33N 51°25' E 003°14'9 8.6
2014-Jul-28 23:33N 51°25' E 003°28'9 8.6
2014-Jul-28 22:33N 51°27' E 003°42'1 1.2
2014-Jul-28 21:32N 51°27' E 003°43'0 0.0
2014-Jul-28 20:29N 51°27' E 003°43'0 0.0
2014-Jul-28 19:32N 51°27' E 003°43'0 0.0
2014-Jul-28 18:32N 51°27' E 003°43'0 0.0
2014-Jul-28 17:32N 51°27' E 003°43'0 0.0
2014-Jul-28 16:32N 51°27' E 003°43'0 0.0
2014-Jul-28 15:32N 51°27' E 003°43'0 0.0
2014-Jul-28 14:32N 51°27' E 003°43'0 0.0
2014-Jul-28 13:32N 51°27' E 003°43'0 0.0
2014-Jul-28 12:32N 51°27' E 003°43'0 0.0
2014-Jul-28 11:32N 51°27' E 003°43'0 0.0
2014-Jul-28 10:32N 51°27' E 003°43'0 0.0
2014-Jul-28 09:32N 51°27' E 003°43'0 0.0
2014-Jul-28 08:29N 51°27' E 003°43'0 0.0
2014-Jul-28 07:32N 51°27' E 003°43'0 0.0
2014-Jul-28 06:32N 51°27' E 003°43'0 0.0
2014-Jul-28 05:29N 51°27' E 003°43'0 0.0
2014-Jul-28 04:32N 51°27' E 003°43'0 0.0
2014-Jul-28 03:32N 51°27' E 003°43'0 0.0
2014-Jul-28 02:32N 51°27' E 003°43'0 0.0
2014-Jul-28 01:32N 51°27' E 003°43'0 0.0
2014-Jul-28 00:32N 51°27' E 003°43'0 0.0
2014-Jul-27 23:32N 51°27' E 003°43'0 0.0
2014-Jul-27 22:32N 51°27' E 003°43'0 0.0
2014-Jul-27 21:29N 51°27' E 003°43'0 0.0
2014-Jul-27 20:32N 51°27' E 003°43'0 0.0
2014-Jul-27 19:32N 51°27' E 003°43'0 0.0
2014-Jul-27 18:32N 51°27' E 003°43'0 0.0
2014-Jul-27 17:32N 51°27' E 003°43'0 0.0
2014-Jul-27 16:29N 51°27' E 003°43'0 0.0
2014-Jul-27 15:32N 51°27' E 003°43'0 0.0
2014-Jul-27 14:32N 51°27' E 003°43'0 0.0
2014-Jul-27 13:32N 51°27' E 003°43'0 0.0
2014-Jul-27 12:32N 51°27' E 003°43'0 0.0
2014-Jul-27 11:32N 51°27' E 003°43'0 0.4
2014-Jul-27 10:31N 51°27' E 003°43'0 0.0
2014-Jul-27 09:31N 51°27' E 003°43'0 0.0
2014-Jul-27 08:28N 51°27' E 003°43'0 0.0
2014-Jul-27 07:28N 51°27' E 003°43'0 0.0
2014-Jul-27 06:31N 51°27' E 003°43'0 0.0
2014-Jul-27 05:31N 51°27' E 003°43'0 0.0
2014-Jul-27 04:31N 51°27' E 003°43'0 0.0
2014-Jul-27 03:31N 51°27' E 003°43'0 0.0
2014-Jul-27 02:31N 51°27' E 003°43'0 0.0
2014-Jul-27 01:31N 51°27' E 003°43'0 0.0
2014-Jul-27 00:31N 51°27' E 003°43'0 0.0
2014-Jul-26 23:31N 51°27' E 003°43'0 0.0
2014-Jul-26 22:31N 51°27' E 003°43'0 0.0
2014-Jul-26 21:31N 51°27' E 003°43'0 0.0
2014-Jul-26 20:31N 51°27' E 003°43'0 0.0
2014-Jul-26 19:31N 51°27' E 003°43'0 0.0
2014-Jul-26 18:31N 51°27' E 003°43'0 0.0
2014-Jul-26 17:31N 51°27' E 003°43'0 0.0
2014-Jul-26 16:31N 51°27' E 003°43'0 0.0
2014-Jul-26 15:31N 51°27' E 003°43'0 0.0
2014-Jul-26 14:31N 51°27' E 003°43'0 0.0
2014-Jul-26 13:31N 51°27' E 003°43'0 0.0
2014-Jul-26 12:31N 51°27' E 003°43'0 0.0
2014-Jul-26 11:28N 51°27' E 003°43'0 0.0
2014-Jul-26 10:31N 51°27' E 003°43'0 0.0
2014-Jul-26 09:31N 51°27' E 003°43'0 0.0
2014-Jul-26 08:25N 51°27' E 003°43'0 0.0
2014-Jul-26 07:31N 51°27' E 003°43'0 0.0
2014-Jul-26 06:31N 51°27' E 003°43'0 0.0
2014-Jul-26 05:31N 51°27' E 003°43'0 0.0
2014-Jul-26 04:31N 51°27' E 003°43'0 0.0
2014-Jul-26 03:31N 51°27' E 003°43'0 0.0
2014-Jul-26 02:31N 51°27' E 003°43'0 0.0
2014-Jul-26 01:31N 51°27' E 003°43'0 0.0
2014-Jul-26 00:31N 51°27' E 003°43'0 0.0
2014-Jul-25 23:31N 51°27' E 003°43'0 0.0
2014-Jul-25 22:31N 51°27' E 003°43'0 0.0
2014-Jul-25 21:31N 51°27' E 003°43'0 0.0
2014-Jul-25 20:31N 51°27' E 003°43'0 0.0
2014-Jul-25 19:31N 51°27' E 003°43'0 0.0
2014-Jul-25 18:31N 51°27' E 003°43'0 0.0
2014-Jul-25 17:31N 51°27' E 003°43'0 0.0
2014-Jul-25 16:31N 51°27' E 003°43'0 0.0
2014-Jul-25 15:31N 51°27' E 003°43'0 0.0
2014-Jul-25 14:28N 51°27' E 003°43'0 0.0
2014-Jul-25 13:31N 51°27' E 003°43'0 0.0
2014-Jul-25 12:31N 51°27' E 003°43'0 0.0
2014-Jul-25 11:31N 51°27' E 003°43'0 0.0
2014-Jul-25 10:31N 51°27' E 003°43'1 1.0
2014-Jul-25 09:30N 51°28' E 003°42'0 0.0
2014-Jul-25 08:33N 51°28' E 003°41'0 0.0
2014-Jul-25 07:33N 51°28' E 003°41'0 0.0
2014-Jul-25 06:33N 51°28' E 003°41'0 0.0
2014-Jul-25 05:33N 51°28' E 003°41'0 0.0
2014-Jul-25 04:33N 51°28' E 003°41'0 0.0
2014-Jul-25 03:30N 51°28' E 003°41'0 0.0
2014-Jul-25 02:33N 51°28' E 003°41'0 0.0
2014-Jul-25 01:33N 51°28' E 003°41'0 0.0
2014-Jul-25 00:30N 51°28' E 003°41'0 0.0
2014-Jul-24 23:33N 51°28' E 003°41'0 0.0
2014-Jul-24 22:33N 51°28' E 003°41'0 0.0
2014-Jul-24 21:33N 51°28' E 003°41'0 0.0
2014-Jul-24 20:30N 51°28' E 003°42'0 0.0
2014-Jul-24 19:33N 51°28' E 003°41'0 0.0
2014-Jul-24 18:33N 51°28' E 003°41'0 0.0
2014-Jul-24 17:33N 51°28' E 003°41'0 0.0
2014-Jul-24 16:33N 51°28' E 003°41'0 0.0
2014-Jul-24 15:33N 51°28' E 003°42'0 0.0
2014-Jul-24 14:33N 51°28' E 003°41'0 0.0
2014-Jul-24 13:30N 51°28' E 003°42'0 0.0
2014-Jul-24 12:33N 51°28' E 003°41'0 0.0
2014-Jul-24 11:33N 51°28' E 003°41'0 0.0
2014-Jul-24 10:30N 51°28' E 003°41'0 0.0
2014-Jul-24 09:33N 51°28' E 003°42'0 0.0
2014-Jul-24 08:33N 51°28' E 003°42'0 0.0
2014-Jul-24 07:30N 51°28' E 003°42'0 0.0
2014-Jul-24 06:33N 51°28' E 003°42'0 0.0
2014-Jul-24 05:30N 51°28' E 003°41'0 0.0
2014-Jul-24 04:33N 51°28' E 003°41'0 0.0
2014-Jul-24 03:33N 51°28' E 003°41'0 0.4
2014-Jul-24 02:33N 51°28' E 003°41'7 6.8
2014-Jul-24 01:33N 51°29' E 003°30'9 9.4
2014-Jul-24 00:33N 51°37' E 003°22'9 9.1
2014-Jul-23 23:34N 51°45' E 003°16'9 8.6
2014-Jul-23 22:33N 51°53' E 003°18'9 9.2
2014-Jul-23 21:33N 52°02' E 003°20'10 9.9
2014-Jul-23 20:31N 52°13' E 003°23'1010.4
2014-Jul-23 19:33N 52°23' E 003°26'1110.8
2014-Jul-23 18:33N 52°33' E 003°29'1110.6
2014-Jul-23 17:33N 52°42' E 003°39'1010.3
2014-Jul-23 16:33N 52°50' E 003°50'9 9.5
2014-Jul-23 15:33N 52°57' E 004°01'9 8.9
2014-Jul-23 14:34N 53°03' E 004°12'9 8.9
2014-Jul-23 13:33N 53°08' E 004°23'9 8.7
2014-Jul-23 12:33N 53°16' E 004°29'1010.0
2014-Jul-23 11:34N 53°25' E 004°36'1110.6
2014-Jul-23 10:34N 53°31' E 004°51'1111.2
2014-Jul-23 09:33N 53°35' E 005°09'1111.0
2014-Jul-23 08:34N 53°38' E 005°26'1010.4
2014-Jul-23 07:33N 53°41' E 005°43'9 9.5
2014-Jul-23 06:34N 53°45' E 005°58'9 9.1
2014-Jul-23 05:34N 53°48' E 006°13'9 8.7
2014-Jul-23 04:34N 53°50' E 006°27'9 9.1
2014-Jul-23 03:33N 53°54' E 006°41'13 9.8
2014-Jul-23 02:13N 53°57' E 007°03'810.5
2014-Jul-23 01:28N 53°59' E 007°16'1010.7
2014-Jul-23 00:34N 54°01' E 007°32'1110.6
2014-Jul-22 23:33N 54°02' E 007°50'1111.0
2014-Jul-22 22:34N 54°01' E 008°09'1111.3
2014-Jul-22 21:33N 53°59' E 008°27'9 9.0
2014-Jul-22 20:34N 53°55' E 008°41'7 7.2
2014-Jul-22 19:34N 53°50' E 008°51'7 7.3
2014-Jul-22 18:33N 53°52' E 009°03'4 3.9
2014-Jul-22 17:33N 53°54' E 009°09'6 6.0
2014-Jul-22 16:32N 53°58' E 009°16'9 8.6
2014-Jul-22 15:32N 54°06' E 009°20'4 3.8
2014-Jul-22 14:33N 54°09' E 009°23'  

Dump ship's entire track history